createdAt,value
2023-04-01T00:00:02.671Z,8.33
2023-04-01T00:02:41.854Z,8.30
2023-04-01T00:05:11.615Z,8.24
2023-04-01T00:07:39.249Z,8.23
2023-04-01T00:10:07.852Z,8.23
2023-04-01T00:12:42.557Z,8.14
2023-04-01T00:15:13.282Z,8.06
2023-04-01T00:17:44.937Z,8.12
2023-04-01T00:20:16.780Z,8.09
2023-04-01T00:22:46.159Z,8.02
2023-04-01T00:25:13.082Z,8.10
2023-04-01T00:27:42.093Z,8.09
2023-04-01T00:30:12.338Z,8.00
2023-04-01T00:32:42.154Z,8.10
2023-04-01T00:35:14.116Z,8.02
2023-04-01T00:37:41.114Z,8.09
2023-04-01T00:40:09.198Z,7.93
2023-04-01T00:42:35.990Z,7.97
2023-04-01T00:45:46.633Z,8.01
2023-04-01T00:48:22.489Z,8.00
2023-04-01T00:50:55.439Z,8.01
2023-04-01T00:53:24.169Z,7.97
2023-04-01T00:56:11.384Z,8.02
2023-04-01T00:58:44.512Z,7.93
2023-04-01T01:01:16.735Z,8.01
2023-04-01T01:03:50.788Z,7.95
2023-04-01T01:06:40.202Z,7.99
2023-04-01T01:09:22.475Z,7.97
2023-04-01T01:11:58.849Z,7.95
2023-04-01T01:14:46.051Z,7.98
2023-04-01T01:17:17.107Z,8.01
2023-04-01T01:20:26.154Z,8.01
2023-04-01T01:23:26.879Z,8.04
2023-04-01T01:26:23.583Z,8.02
2023-04-01T01:29:21.564Z,8.01
2023-04-01T01:32:02.963Z,8.05
2023-04-01T01:37:16.758Z,8.01
2023-04-01T01:40:00.427Z,8.03
2023-04-01T01:42:35.177Z,8.04
2023-04-01T01:45:05.267Z,8.06
2023-04-01T01:47:39.149Z,8.05
2023-04-01T01:50:14.535Z,8.03
2023-04-01T01:52:46.177Z,7.96
2023-04-01T01:55:38.576Z,8.04
2023-04-01T01:58:20.588Z,7.99
2023-04-01T02:00:56.931Z,8.07
2023-04-01T02:03:29.622Z,8.07
2023-04-01T02:05:59.384Z,8.11
2023-04-01T02:08:45.094Z,8.06
2023-04-01T02:11:20.178Z,8.06
2023-04-01T02:13:58.225Z,8.11
2023-04-01T02:16:33.100Z,8.11
2023-04-01T02:19:08.517Z,8.10
2023-04-01T02:21:40.189Z,8.10
2023-04-01T02:24:11.812Z,8.10
2023-04-01T02:26:41.513Z,8.07
2023-04-01T02:29:13.296Z,8.08
2023-04-01T02:31:46.598Z,8.12
2023-04-01T02:34:17.896Z,8.06
2023-04-01T02:36:51.579Z,8.00
2023-04-01T02:39:26.805Z,8.11
2023-04-01T02:41:56.101Z,8.02
2023-04-01T02:44:22.975Z,8.09
2023-04-01T02:46:54.752Z,8.09
2023-04-01T02:49:24.196Z,8.09
2023-04-01T02:51:53.206Z,8.05
2023-04-01T02:54:24.602Z,8.10
2023-04-01T02:56:59.542Z,8.08
2023-04-01T02:59:29.002Z,8.06
2023-04-01T03:02:03.119Z,8.07
2023-04-01T03:04:29.971Z,8.06
2023-04-01T03:07:03.926Z,8.09
2023-04-01T03:09:33.650Z,7.96
2023-04-01T03:12:03.205Z,8.03
2023-04-01T03:14:32.504Z,8.05
2023-04-01T03:17:06.740Z,7.99
2023-04-01T03:19:38.291Z,8.07
2023-04-01T03:22:14.367Z,8.01
2023-04-01T03:24:43.599Z,8.00
2023-04-01T03:27:18.348Z,8.04
2023-04-01T03:29:52.606Z,7.98
2023-04-01T03:32:24.421Z,7.88
2023-04-01T03:34:53.317Z,7.93
2023-04-01T03:37:24.824Z,7.99
2023-04-01T03:39:58.510Z,7.89
2023-04-01T03:42:27.926Z,7.91
2023-04-01T03:44:59.644Z,7.90
2023-04-01T03:47:26.458Z,7.90
2023-04-01T03:49:56.555Z,7.84
2023-04-01T03:52:27.646Z,7.84
2023-04-01T03:54:54.560Z,7.83
2023-04-01T03:57:28.994Z,7.73
2023-04-01T04:00:02.440Z,7.75
2023-04-01T04:02:33.956Z,7.82
2023-04-01T04:05:03.309Z,7.84
2023-04-01T04:07:38.780Z,7.78
2023-04-01T04:10:11.803Z,7.82
2023-04-01T04:12:41.923Z,7.77
2023-04-01T04:15:11.613Z,7.77
2023-04-01T04:17:38.792Z,7.74
2023-04-01T04:20:11.640Z,7.73
2023-04-01T04:22:41.162Z,7.74
2023-04-01T04:25:09.639Z,7.76
2023-04-01T04:27:37.204Z,7.77
2023-04-01T04:30:13.569Z,7.73
2023-04-01T04:32:45.890Z,7.63
2023-04-01T04:35:18.171Z,7.75
2023-04-01T04:37:47.482Z,7.71
2023-04-01T04:40:17.128Z,7.70
2023-04-01T04:42:43.897Z,7.64
2023-04-01T04:45:14.320Z,7.74
2023-04-01T04:47:56.552Z,7.77
2023-04-01T04:50:26.736Z,7.80
2023-04-01T04:52:56.044Z,7.77
2023-04-01T04:55:25.802Z,7.77
2023-04-01T04:58:14.741Z,7.84
2023-04-01T05:00:45.843Z,7.82
2023-04-01T05:03:22.415Z,7.84
2023-04-01T05:05:55.079Z,7.88
2023-04-01T05:08:27.096Z,7.94
2023-04-01T05:10:59.154Z,8.00
2023-04-01T05:13:26.316Z,7.99
2023-04-01T05:15:58.138Z,8.16
2023-04-01T05:18:25.786Z,8.17
2023-04-01T05:20:59.542Z,8.23
2023-04-01T05:23:28.638Z,8.20
2023-04-01T05:25:58.227Z,8.17
2023-04-01T05:28:29.952Z,8.12
2023-04-01T05:31:06.787Z,8.12
2023-04-01T05:33:41.788Z,8.17
2023-04-01T05:36:16.503Z,8.19
2023-04-01T05:38:47.618Z,8.17
2023-04-01T05:41:17.816Z,8.16
2023-04-01T05:43:46.457Z,8.17
2023-04-01T05:46:32.727Z,8.16
2023-04-01T05:49:11.284Z,8.13
2023-04-01T05:51:43.291Z,8.18
2023-04-01T05:54:15.571Z,8.10
2023-04-01T05:56:48.602Z,8.12
2023-04-01T05:59:17.997Z,8.20
2023-04-01T06:01:47.305Z,8.21
2023-04-01T06:04:19.310Z,8.26
2023-04-01T06:06:47.084Z,8.29
2023-04-01T06:09:24.693Z,8.27
2023-04-01T06:12:21.886Z,8.16
2023-04-01T06:15:21.573Z,8.30
2023-04-01T06:18:19.669Z,8.29
2023-04-01T06:21:20.430Z,8.23
2023-04-01T06:24:46.057Z,8.34
2023-04-01T06:27:28.021Z,8.35
2023-04-01T06:30:09.512Z,8.28
2023-04-01T06:32:38.768Z,8.38
2023-04-01T06:35:18.034Z,8.37
2023-04-01T06:38:11.949Z,8.35
2023-04-01T06:41:01.526Z,8.44
2023-04-01T06:43:52.208Z,8.53
2023-04-01T06:46:52.056Z,8.55
2023-04-01T06:50:08.794Z,8.59
2023-04-01T06:53:29.905Z,8.60
2023-04-01T06:56:29.367Z,8.61
2023-04-01T06:59:12.231Z,8.68
2023-04-01T07:01:55.136Z,8.85
2023-04-01T07:04:36.969Z,8.98
2023-04-01T07:07:13.836Z,9.03
2023-04-01T07:09:55.362Z,9.11
2023-04-01T07:12:55.460Z,9.16
2023-04-01T07:15:48.920Z,9.19
2023-04-01T07:18:21.414Z,9.06
2023-04-01T07:20:53.629Z,9.08
2023-04-01T07:23:25.596Z,9.13
2023-04-01T07:26:33.798Z,9.25
2023-04-01T07:29:18.454Z,9.21
2023-04-01T07:32:00.748Z,9.20
2023-04-01T07:34:47.054Z,9.20
2023-04-01T07:37:36.015Z,9.28
2023-04-01T07:40:44.167Z,9.34
2023-04-01T07:43:30.156Z,9.43
2023-04-01T07:46:53.983Z,9.49
2023-04-01T07:49:40.268Z,9.52
2023-04-01T07:52:48.728Z,9.56
2023-04-01T07:55:42.110Z,9.57
2023-04-01T07:58:38.254Z,9.64
2023-04-01T08:01:23.212Z,9.70
2023-04-01T08:04:35.272Z,9.69
2023-04-01T08:07:10.951Z,9.65
2023-04-01T08:09:44.422Z,9.64
2023-04-01T08:12:41.337Z,9.70
2023-04-01T08:16:04.775Z,9.73
2023-04-01T08:18:48.345Z,9.80
2023-04-01T08:21:25.064Z,9.81
2023-04-01T08:24:03.514Z,9.80
2023-04-01T08:26:46.501Z,9.87
2023-04-01T08:29:19.409Z,9.89
2023-04-01T08:32:09.219Z,9.96
2023-04-01T08:34:47.123Z,9.99
2023-04-01T08:37:32.440Z,9.98
2023-04-01T08:40:20.614Z,10.01
2023-04-01T08:43:21.159Z,10.05
2023-04-01T08:46:15.375Z,10.10
2023-04-01T08:49:04.300Z,10.17
2023-04-01T08:52:05.364Z,10.23
2023-04-01T08:54:46.352Z,10.26
2023-04-01T08:57:41.341Z,10.33
2023-04-01T09:00:34.450Z,10.35
2023-04-01T09:03:51.803Z,10.47
2023-04-01T09:06:34.246Z,10.45
2023-04-01T09:09:27.555Z,10.50
2023-04-01T09:12:21.045Z,10.64
2023-04-01T09:15:12.634Z,10.72
2023-04-01T09:17:48.065Z,10.83
2023-04-01T09:20:42.214Z,10.93
2023-04-01T09:23:55.470Z,10.94
2023-04-01T09:26:36.380Z,10.94
2023-04-01T09:29:14.399Z,10.89
2023-04-01T09:32:14.191Z,10.88
2023-04-01T09:35:26.346Z,10.89
2023-04-01T09:38:05.857Z,10.86
2023-04-01T09:40:53.944Z,10.99
2023-04-01T09:43:41.280Z,11.02
2023-04-01T09:46:22.702Z,11.02
2023-04-01T09:49:06.933Z,10.97
2023-04-01T09:51:45.998Z,11.09
2023-04-01T09:54:13.493Z,11.19
2023-04-01T09:57:10.323Z,11.27
2023-04-01T10:00:08.736Z,11.31
2023-04-01T10:03:20.113Z,11.30
2023-04-01T10:06:22.040Z,11.37
2023-04-01T10:09:20.250Z,11.33
2023-04-01T10:12:10.137Z,11.28
2023-04-01T10:14:37.585Z,11.28
2023-04-01T10:17:31.276Z,11.24
2023-04-01T10:20:18.819Z,11.23
2023-04-01T10:23:00.429Z,11.22
2023-04-01T10:25:51.993Z,11.16
2023-04-01T10:28:41.620Z,11.12
2023-04-01T10:31:54.509Z,11.29
2023-04-01T10:34:52.427Z,11.31
2023-04-01T10:37:39.903Z,11.29
2023-04-01T10:40:31.415Z,11.28
2023-04-01T10:43:45.288Z,11.31
2023-04-01T10:46:33.087Z,11.32
2023-04-01T10:49:23.945Z,11.25
2023-04-01T10:52:36.151Z,11.07
2023-04-01T10:55:50.375Z,11.00
2023-04-01T10:58:50.117Z,11.04
2023-04-01T11:02:23.492Z,10.99
2023-04-01T11:05:39.996Z,10.97
2023-04-01T11:08:31.375Z,11.00
2023-04-01T11:11:23.276Z,11.07
2023-04-01T11:14:14.201Z,11.05
2023-04-01T11:17:04.114Z,10.79
2023-04-01T11:19:53.913Z,10.84
2023-04-01T11:22:53.715Z,10.80
2023-04-01T11:25:48.714Z,10.62
2023-04-01T11:28:51.427Z,10.66
2023-04-01T11:31:55.204Z,10.73
2023-04-01T11:34:53.207Z,10.87
2023-04-01T11:37:32.371Z,10.87
2023-04-01T11:40:54.949Z,10.76
2023-04-01T11:44:21.235Z,10.44
2023-04-01T11:47:29.659Z,10.10
2023-04-01T11:50:07.686Z,9.92
2023-04-01T11:53:03.827Z,9.82
2023-04-01T11:55:56.192Z,9.35
2023-04-01T11:58:34.417Z,9.38
2023-04-01T12:01:25.554Z,9.42
2023-04-01T12:04:13.732Z,9.28
2023-04-01T12:07:33.182Z,9.33
2023-04-01T12:10:30.293Z,9.25
2023-04-01T12:13:11.552Z,9.16
2023-04-01T12:15:47.622Z,9.05
2023-04-01T12:18:32.983Z,9.09
2023-04-01T12:21:17.094Z,9.10
2023-04-01T12:24:11.820Z,9.08
2023-04-01T12:26:49.538Z,9.02
2023-04-01T12:29:53.817Z,8.92
2023-04-01T12:32:41.448Z,8.96
2023-04-01T12:35:11.100Z,8.81
2023-04-01T12:37:46.414Z,8.81
2023-04-01T12:40:29.659Z,8.78
2023-04-01T12:43:17.107Z,8.68
2023-04-01T12:45:54.297Z,8.69
2023-04-01T12:49:01.286Z,8.77
2023-04-01T12:51:36.583Z,8.79
2023-04-01T12:54:35.620Z,8.76
2023-04-01T12:57:16.620Z,8.69
2023-04-01T12:59:52.677Z,8.71
2023-04-01T13:02:52.583Z,8.74
2023-04-01T13:05:26.212Z,8.67
2023-04-01T13:08:05.740Z,8.67
2023-04-01T13:11:10.550Z,8.62
2023-04-01T13:13:51.860Z,8.61
2023-04-01T13:16:33.069Z,8.60
2023-04-01T13:19:16.896Z,8.59
2023-04-01T13:21:55.783Z,8.61
2023-04-01T13:24:40.034Z,8.58
2023-04-01T13:27:33.037Z,8.63
2023-04-01T13:30:05.648Z,8.63
2023-04-01T13:32:44.126Z,8.61
2023-04-01T13:35:48.135Z,8.68
2023-04-01T13:38:26.319Z,8.71
2023-04-01T13:41:11.225Z,8.70
2023-04-01T13:43:54.163Z,8.67
2023-04-01T13:46:41.120Z,8.67
2023-04-01T13:49:38.404Z,8.72
2023-04-01T13:52:33.139Z,8.65
2023-04-01T13:55:27.259Z,8.63
2023-04-01T13:58:05.206Z,8.66
2023-04-01T14:00:56.857Z,8.65
2023-04-01T14:03:40.356Z,8.67
2023-04-01T14:06:15.492Z,8.70
2023-04-01T14:09:12.612Z,8.82
2023-04-01T14:12:16.800Z,8.89
2023-04-01T14:15:22.727Z,8.85
2023-04-01T14:18:06.073Z,8.87
2023-04-01T14:20:43.494Z,8.87
2023-04-01T14:23:30.610Z,8.94
2023-04-01T14:26:05.468Z,8.92
2023-04-01T14:28:46.063Z,8.96
2023-04-01T14:31:36.435Z,8.97
2023-04-01T14:34:37.655Z,8.99
2023-04-01T14:37:16.493Z,8.99
2023-04-01T14:39:56.908Z,9.02
2023-04-01T14:42:32.356Z,9.05
2023-04-01T14:45:25.556Z,9.10
2023-04-01T14:47:55.138Z,9.17
2023-04-01T14:50:29.734Z,9.13
2023-04-01T14:53:19.957Z,9.16
2023-04-01T14:55:52.565Z,9.17
2023-04-01T14:58:23.801Z,9.14
2023-04-01T15:01:01.563Z,9.13
2023-04-01T15:03:42.527Z,9.16
2023-04-01T15:06:34.370Z,9.21
2023-04-01T15:09:28.914Z,9.22
2023-04-01T15:12:23.337Z,9.21
2023-04-01T15:15:16.190Z,9.21
2023-04-01T15:17:53.669Z,9.14
2023-04-01T15:20:45.087Z,9.19
2023-04-01T15:23:33.055Z,9.21
2023-04-01T15:26:27.486Z,9.22
2023-04-01T15:29:16.029Z,9.27
2023-04-01T15:32:03.904Z,9.20
2023-04-01T15:34:38.866Z,9.31
2023-04-01T15:37:58.532Z,9.31
2023-04-01T15:40:40.023Z,9.26
2023-04-01T15:43:12.222Z,9.30
2023-04-01T15:46:19.312Z,9.23
2023-04-01T15:49:29.453Z,9.30
2023-04-01T15:52:03.846Z,9.21
2023-04-01T15:54:54.987Z,9.27
2023-04-01T15:57:43.422Z,9.26
2023-04-01T16:00:31.789Z,9.28
2023-04-01T16:03:33.913Z,9.29
2023-04-01T16:06:28.071Z,9.31
2023-04-01T16:09:11.941Z,9.31
2023-04-01T16:12:10.575Z,9.40
2023-04-01T16:15:04.846Z,9.38
2023-04-01T16:17:45.731Z,9.15
2023-04-01T16:20:27.650Z,9.36
2023-04-01T16:23:06.358Z,9.41
2023-04-01T16:25:36.485Z,9.53
2023-04-01T16:28:22.550Z,9.60
2023-04-01T16:31:10.555Z,9.64
2023-04-01T16:33:57.101Z,9.65
2023-04-01T16:36:39.295Z,9.61
2023-04-01T16:39:29.863Z,9.64
2023-04-01T16:42:20.510Z,9.65
2023-04-01T16:45:08.298Z,9.64
2023-04-01T16:47:49.028Z,9.65
2023-04-01T16:50:24.673Z,9.66
2023-04-01T16:53:09.455Z,9.65
2023-04-01T16:56:01.888Z,9.60
2023-04-01T16:59:02.418Z,9.51
2023-04-01T17:02:03.034Z,9.60
2023-04-01T17:05:03.810Z,9.60
2023-04-01T17:07:37.946Z,9.61
2023-04-01T17:10:36.793Z,9.64
2023-04-01T17:13:09.665Z,9.61
2023-04-01T17:15:51.157Z,9.62
2023-04-01T17:18:38.747Z,9.64
2023-04-01T17:21:11.425Z,9.60
2023-04-01T17:23:55.908Z,9.48
2023-04-01T17:26:34.058Z,9.50
2023-04-01T17:29:24.589Z,9.46
2023-04-01T17:32:08.801Z,9.45
2023-04-01T17:35:05.004Z,9.53
2023-04-01T17:37:56.299Z,9.55
2023-04-01T17:41:03.069Z,9.48
2023-04-01T17:43:42.926Z,9.48
2023-04-01T17:46:28.930Z,9.46
2023-04-01T17:49:18.424Z,9.50
2023-04-01T17:51:53.564Z,9.52
2023-04-01T17:54:38.781Z,9.46
2023-04-01T17:57:34.188Z,9.53
2023-04-01T18:00:17.865Z,9.55
2023-04-01T18:03:01.970Z,9.55
2023-04-01T18:05:44.031Z,9.55
2023-04-01T18:08:38.890Z,9.54
2023-04-01T18:11:43.345Z,9.55
2023-04-01T18:14:48.508Z,9.55
2023-04-01T18:17:39.651Z,9.53
2023-04-01T18:20:28.010Z,9.50
2023-04-01T18:23:21.787Z,9.51
2023-04-01T18:25:53.309Z,9.44
2023-04-01T18:28:32.232Z,9.54
2023-04-01T18:31:07.023Z,9.51
2023-04-01T18:33:53.033Z,9.47
2023-04-01T18:36:30.641Z,9.45
2023-04-01T18:39:17.394Z,9.43
2023-04-01T18:41:46.467Z,9.39
2023-04-01T18:44:33.845Z,9.43
2023-04-01T18:47:15.291Z,9.41
2023-04-01T18:49:56.657Z,9.33
2023-04-01T18:52:37.558Z,9.27
2023-04-01T18:55:27.673Z,9.28
2023-04-01T18:58:21.451Z,9.23
2023-04-01T19:01:03.934Z,9.28
2023-04-01T19:03:47.431Z,9.29
2023-04-01T19:06:25.789Z,9.26
2023-04-01T19:08:55.120Z,9.26
2023-04-01T19:11:31.486Z,9.30
2023-04-01T19:14:06.729Z,9.26
2023-04-01T19:16:45.059Z,9.27
2023-04-01T19:19:38.669Z,9.27
2023-04-01T19:22:32.461Z,9.22
2023-04-01T19:25:29.773Z,9.22
2023-04-01T19:28:28.230Z,9.24
2023-04-01T19:31:11.436Z,9.18
2023-04-01T19:33:48.076Z,9.17
2023-04-01T19:36:28.289Z,9.14
2023-04-01T19:39:19.153Z,9.12
2023-04-01T19:41:56.908Z,9.07
2023-04-01T19:45:02.102Z,9.04
2023-04-01T19:47:31.826Z,8.98
2023-04-01T19:50:23.479Z,8.94
2023-04-01T19:52:58.473Z,8.89
2023-04-01T19:55:33.570Z,8.84
2023-04-01T19:58:16.307Z,8.93
2023-04-01T20:00:53.154Z,8.88
2023-04-01T20:03:37.653Z,8.89
2023-04-01T20:06:11.597Z,8.86
2023-04-01T20:08:58.148Z,8.83
2023-04-01T20:11:37.109Z,8.86
2023-04-01T20:14:45.264Z,8.85
2023-04-01T20:17:26.312Z,8.82
2023-04-01T20:20:09.629Z,8.81
2023-04-01T20:22:46.146Z,8.77
2023-04-01T20:25:27.882Z,8.75
2023-04-01T20:28:20.100Z,8.75
2023-04-01T20:31:16.682Z,8.72
2023-04-01T20:34:15.446Z,8.67
2023-04-01T20:37:00.404Z,8.64
2023-04-01T20:40:00.761Z,8.62
2023-04-01T20:42:49.172Z,8.57
2023-04-01T20:45:44.291Z,8.59
2023-04-01T20:48:28.670Z,8.59
2023-04-01T20:51:07.863Z,8.67
2023-04-01T20:53:44.607Z,8.55
2023-04-01T20:56:32.960Z,8.54
2023-04-01T20:59:20.609Z,8.58
2023-04-01T21:02:24.414Z,8.54
2023-04-01T21:05:30.551Z,8.48
2023-04-01T21:08:13.024Z,8.51
2023-04-01T21:11:09.873Z,8.55
2023-04-01T21:14:08.552Z,8.55
2023-04-01T21:16:41.724Z,8.54
2023-04-01T21:19:33.503Z,8.47
2023-04-01T21:22:14.989Z,8.45
2023-04-01T21:25:02.967Z,8.45
2023-04-01T21:28:00.282Z,8.47
2023-04-01T21:31:25.048Z,8.45
2023-04-01T21:34:27.956Z,8.42
2023-04-01T21:37:13.521Z,8.42
2023-04-01T21:40:13.233Z,8.44
2023-04-01T21:42:51.906Z,8.41
2023-04-01T21:46:08.680Z,8.45
2023-04-01T21:48:55.872Z,8.42
2023-04-01T21:51:56.466Z,8.42
2023-04-01T21:54:38.949Z,8.44
2023-04-01T21:57:51.338Z,8.47
2023-04-01T22:00:21.377Z,8.51
2023-04-01T22:03:19.807Z,8.48
2023-04-01T22:06:17.460Z,8.45
2023-04-01T22:08:44.206Z,8.46
2023-04-01T22:11:33.534Z,8.45
2023-04-01T22:15:01.355Z,8.48
2023-04-01T22:17:59.150Z,8.42
2023-04-01T22:20:51.526Z,8.42
2023-04-01T22:23:24.215Z,8.45
2023-04-01T22:26:34.922Z,8.44
2023-04-01T22:29:19.669Z,8.47
2023-04-01T22:32:08.793Z,8.45
2023-04-01T22:34:50.036Z,8.46
2023-04-01T22:37:31.371Z,8.42
2023-04-01T22:40:12.689Z,8.48
2023-04-01T22:42:46.547Z,8.47
2023-04-01T22:45:41.914Z,8.43
2023-04-01T22:48:23.690Z,8.40
2023-04-01T22:51:04.726Z,8.36
2023-04-01T22:53:56.058Z,8.38
2023-04-01T22:56:35.946Z,8.38
2023-04-01T22:59:11.404Z,8.38
2023-04-01T23:02:14.282Z,8.34
2023-04-01T23:04:48.396Z,8.35
2023-04-01T23:07:54.254Z,8.33
2023-04-01T23:10:24.986Z,8.32
2023-04-01T23:12:55.944Z,8.34
2023-04-01T23:15:28.399Z,8.34
2023-04-01T23:18:02.162Z,8.37
2023-04-01T23:20:59.204Z,8.41
2023-04-01T23:23:40.563Z,8.41
2023-04-01T23:26:51.373Z,8.38
2023-04-01T23:29:24.211Z,8.28
2023-04-01T23:32:01.520Z,8.41
2023-04-01T23:34:33.225Z,8.36
2023-04-01T23:37:06.530Z,8.37
2023-04-01T23:39:39.003Z,8.30
2023-04-01T23:42:13.930Z,8.35
2023-04-01T23:44:48.746Z,8.32
2023-04-01T23:47:50.630Z,8.25
2023-04-01T23:50:25.423Z,8.27
2023-04-01T23:53:09.561Z,8.26
2023-04-01T23:55:44.478Z,8.19
2023-04-01T23:58:23.474Z,8.25
